sensor_id;sensor_type;location;lat;lon;timestamp;temperature;humidity
58638;DHT22;54976;51.510;7.522;2022-12-26T00:00:31;11.60;99.90
58638;DHT22;54976;51.510;7.522;2022-12-26T00:03:32;11.60;99.90
58638;DHT22;54976;51.510;7.522;2022-12-26T00:06:33;11.60;99.90
58638;DHT22;54976;51.510;7.522;2022-12-26T00:09:33;11.60;99.90
58638;DHT22;54976;51.510;7.522;2022-12-26T00:12:34;11.60;99.90
58638;DHT22;54976;51.510;7.522;2022-12-26T00:15:39;11.60;99.90
58638;DHT22;54976;51.510;7.522;2022-12-26T00:18:40;11.60;99.90
58638;DHT22;54976;51.510;7.522;2022-12-26T00:21:40;11.70;99.90
58638;DHT22;54976;51.510;7.522;2022-12-26T00:24:41;11.60;99.90
58638;DHT22;54976;51.510;7.522;2022-12-26T00:27:42;11.60;99.90
58638;DHT22;54976;51.510;7.522;2022-12-26T00:30:42;11.70;99.90
58638;DHT22;54976;51.510;7.522;2022-12-26T00:33:43;11.60;99.90
58638;DHT22;54976;51.510;7.522;2022-12-26T00:36:43;11.60;99.90
58638;DHT22;54976;51.510;7.522;2022-12-26T00:39:44;11.60;99.90
58638;DHT22;54976;51.510;7.522;2022-12-26T00:42:47;11.60;99.90
58638;DHT22;54976;51.510;7.522;2022-12-26T00:45:48;11.60;99.90
58638;DHT22;54976;51.510;7.522;2022-12-26T00:48:48;11.60;99.90
58638;DHT22;54976;51.510;7.522;2022-12-26T00:51:49;11.70;99.90
58638;DHT22;54976;51.510;7.522;2022-12-26T00:54:50;11.70;99.90
58638;DHT22;54976;51.510;7.522;2022-12-26T00:57:50;11.70;99.90
58638;DHT22;54976;51.510;7.522;2022-12-26T01:00:51;11.70;99.90
58638;DHT22;54976;51.510;7.522;2022-12-26T01:03:52;11.70;99.90
58638;DHT22;54976;51.510;7.522;2022-12-26T01:06:52;11.70;99.90
58638;DHT22;54976;51.510;7.522;2022-12-26T01:09:53;11.80;99.90
58638;DHT22;54976;51.510;7.522;2022-12-26T01:12:53;11.70;99.90
58638;DHT22;54976;51.510;7.522;2022-12-26T01:15:54;11.70;99.90
58638;DHT22;54976;51.510;7.522;2022-12-26T01:18:55;11.70;99.90
58638;DHT22;54976;51.510;7.522;2022-12-26T01:21:55;11.80;99.90
58638;DHT22;54976;51.510;7.522;2022-12-26T01:24:56;11.70;99.90
58638;DHT22;54976;51.510;7.522;2022-12-26T01:27:57;11.70;99.90
58638;DHT22;54976;51.510;7.522;2022-12-26T01:31:04;11.70;99.90
58638;DHT22;54976;51.510;7.522;2022-12-26T01:34:05;11.70;99.90
58638;DHT22;54976;51.510;7.522;2022-12-26T01:37:06;11.70;99.90
58638;DHT22;54976;51.510;7.522;2022-12-26T01:40:07;11.60;99.90
58638;DHT22;54976;51.510;7.522;2022-12-26T01:43:10;11.60;99.90
58638;DHT22;54976;51.510;7.522;2022-12-26T01:46:11;11.60;99.90
58638;DHT22;54976;51.510;7.522;2022-12-26T01:52:31;11.70;99.90
58638;DHT22;54976;51.510;7.522;2022-12-26T01:55:33;11.50;99.90
58638;DHT22;54976;51.510;7.522;2022-12-26T01:58:38;11.50;99.90
58638;DHT22;54976;51.510;7.522;2022-12-26T02:01:42;11.50;99.90
58638;DHT22;54976;51.510;7.522;2022-12-26T02:04:46;11.50;99.90
58638;DHT22;54976;51.510;7.522;2022-12-26T02:08:16;11.50;99.90
58638;DHT22;54976;51.510;7.522;2022-12-26T02:11:25;11.50;99.90
58638;DHT22;54976;51.510;7.522;2022-12-26T02:14:29;11.50;99.90
58638;DHT22;54976;51.510;7.522;2022-12-26T02:17:30;11.50;99.90
58638;DHT22;54976;51.510;7.522;2022-12-26T02:20:40;11.60;99.90
58638;DHT22;54976;51.510;7.522;2022-12-26T02:34:03;11.50;99.90
58638;DHT22;54976;51.510;7.522;2022-12-26T02:43:43;11.60;99.90
58638;DHT22;54976;51.510;7.522;2022-12-26T02:46:49;11.60;99.90
58638;DHT22;54976;51.510;7.522;2022-12-26T02:50:37;11.60;99.90
58638;DHT22;54976;51.510;7.522;2022-12-26T02:57:50;11.60;99.90
58638;DHT22;54976;51.510;7.522;2022-12-26T03:01:35;11.70;99.90
58638;DHT22;54976;51.510;7.522;2022-12-26T03:04:57;11.60;99.90
58638;DHT22;54976;51.510;7.522;2022-12-26T03:08:29;11.60;99.90
58638;DHT22;54976;51.510;7.522;2022-12-26T03:11:52;11.60;99.90
58638;DHT22;54976;51.510;7.522;2022-12-26T03:15:14;11.60;99.90
58638;DHT22;54976;51.510;7.522;2022-12-26T03:18:16;11.60;99.90
58638;DHT22;54976;51.510;7.522;2022-12-26T03:21:21;11.60;99.90
58638;DHT22;54976;51.510;7.522;2022-12-26T03:24:24;11.60;99.90
58638;DHT22;54976;51.510;7.522;2022-12-26T03:27:46;11.50;99.90
58638;DHT22;54976;51.510;7.522;2022-12-26T03:30:46;11.60;99.90
58638;DHT22;54976;51.510;7.522;2022-12-26T03:33:51;11.60;99.90
58638;DHT22;54976;51.510;7.522;2022-12-26T03:41:00;11.60;99.90
58638;DHT22;54976;51.510;7.522;2022-12-26T03:44:58;11.60;99.90
58638;DHT22;54976;51.510;7.522;2022-12-26T03:59:09;11.50;99.90
58638;DHT22;54976;51.510;7.522;2022-12-26T04:02:29;11.50;99.90
58638;DHT22;54976;51.510;7.522;2022-12-26T04:05:51;11.50;99.90
58638;DHT22;54976;51.510;7.522;2022-12-26T04:09:20;11.50;99.90
58638;DHT22;54976;51.510;7.522;2022-12-26T04:12:43;11.40;99.90
58638;DHT22;54976;51.510;7.522;2022-12-26T04:16:18;11.40;99.90
58638;DHT22;54976;51.510;7.522;2022-12-26T04:23:17;11.40;99.90
58638;DHT22;54976;51.510;7.522;2022-12-26T04:26:43;11.40;99.90
58638;DHT22;54976;51.510;7.522;2022-12-26T04:30:05;11.40;99.90
58638;DHT22;54976;51.510;7.522;2022-12-26T04:33:34;11.30;99.90
58638;DHT22;54976;51.510;7.522;2022-12-26T04:37:02;11.30;99.90
58638;DHT22;54976;51.510;7.522;2022-12-26T04:40:26;11.30;99.90
58638;DHT22;54976;51.510;7.522;2022-12-26T04:43:48;11.20;99.90
58638;DHT22;54976;51.510;7.522;2022-12-26T04:47:11;11.20;99.90
58638;DHT22;54976;51.510;7.522;2022-12-26T04:50:12;11.20;99.90
58638;DHT22;54976;51.510;7.522;2022-12-26T04:53:13;11.00;99.90
58638;DHT22;54976;51.510;7.522;2022-12-26T04:56:14;11.00;99.90
58638;DHT22;54976;51.510;7.522;2022-12-26T04:59:17;10.90;99.90
58638;DHT22;54976;51.510;7.522;2022-12-26T05:02:17;11.00;99.90
58638;DHT22;54976;51.510;7.522;2022-12-26T05:05:40;10.80;99.90
58638;DHT22;54976;51.510;7.522;2022-12-26T05:08:59;11.10;99.90
58638;DHT22;54976;51.510;7.522;2022-12-26T05:12:19;10.90;99.90
58638;DHT22;54976;51.510;7.522;2022-12-26T05:15:20;10.80;99.90
58638;DHT22;54976;51.510;7.522;2022-12-26T05:18:21;10.80;99.90
58638;DHT22;54976;51.510;7.522;2022-12-26T05:21:40;10.80;99.90
58638;DHT22;54976;51.510;7.522;2022-12-26T05:25:00;10.90;99.90
58638;DHT22;54976;51.510;7.522;2022-12-26T05:28:19;10.90;99.90
58638;DHT22;54976;51.510;7.522;2022-12-26T05:31:38;10.80;99.90
58638;DHT22;54976;51.510;7.522;2022-12-26T05:34:39;10.80;99.90
58638;DHT22;54976;51.510;7.522;2022-12-26T05:37:39;10.80;99.90
58638;DHT22;54976;51.510;7.522;2022-12-26T05:40:40;10.80;99.90
58638;DHT22;54976;51.510;7.522;2022-12-26T05:43:40;10.80;99.90
58638;DHT22;54976;51.510;7.522;2022-12-26T05:46:41;10.70;99.90
58638;DHT22;54976;51.510;7.522;2022-12-26T05:49:42;10.80;99.90
58638;DHT22;54976;51.510;7.522;2022-12-26T05:52:42;10.70;99.90
58638;DHT22;54976;51.510;7.522;2022-12-26T05:55:43;10.80;99.90
58638;DHT22;54976;51.510;7.522;2022-12-26T05:58:44;10.70;99.90
58638;DHT22;54976;51.510;7.522;2022-12-26T06:01:45;10.60;99.90
58638;DHT22;54976;51.510;7.522;2022-12-26T06:04:45;10.70;99.90
58638;DHT22;54976;51.510;7.522;2022-12-26T06:07:46;10.70;99.90
58638;DHT22;54976;51.510;7.522;2022-12-26T06:10:47;10.60;99.90
58638;DHT22;54976;51.510;7.522;2022-12-26T06:13:47;10.60;99.90
58638;DHT22;54976;51.510;7.522;2022-12-26T06:16:48;10.60;99.90
58638;DHT22;54976;51.510;7.522;2022-12-26T06:19:49;10.60;99.90
58638;DHT22;54976;51.510;7.522;2022-12-26T06:22:50;10.70;99.90
58638;DHT22;54976;51.510;7.522;2022-12-26T06:25:55;10.70;99.90
58638;DHT22;54976;51.510;7.522;2022-12-26T06:28:55;10.70;99.90
58638;DHT22;54976;51.510;7.522;2022-12-26T06:31:56;10.70;99.90
58638;DHT22;54976;51.510;7.522;2022-12-26T06:34:57;10.70;99.90
58638;DHT22;54976;51.510;7.522;2022-12-26T06:37:57;10.70;99.90
58638;DHT22;54976;51.510;7.522;2022-12-26T06:40:58;10.70;99.90
58638;DHT22;54976;51.510;7.522;2022-12-26T06:43:58;10.70;99.90
58638;DHT22;54976;51.510;7.522;2022-12-26T06:46:59;10.60;99.90
58638;DHT22;54976;51.510;7.522;2022-12-26T06:50:00;10.60;99.90
58638;DHT22;54976;51.510;7.522;2022-12-26T06:53:01;10.60;99.90
58638;DHT22;54976;51.510;7.522;2022-12-26T06:56:09;10.80;99.90
58638;DHT22;54976;51.510;7.522;2022-12-26T06:59:10;10.70;99.90
58638;DHT22;54976;51.510;7.522;2022-12-26T07:02:11;10.60;99.90
58638;DHT22;54976;51.510;7.522;2022-12-26T07:05:14;10.70;99.90
58638;DHT22;54976;51.510;7.522;2022-12-26T07:08:15;10.70;99.90
58638;DHT22;54976;51.510;7.522;2022-12-26T07:11:18;10.70;99.90
58638;DHT22;54976;51.510;7.522;2022-12-26T07:14:19;10.80;99.90
58638;DHT22;54976;51.510;7.522;2022-12-26T07:17:20;10.80;99.90
58638;DHT22;54976;51.510;7.522;2022-12-26T07:20:20;10.80;99.90
58638;DHT22;54976;51.510;7.522;2022-12-26T07:23:21;10.70;99.90
58638;DHT22;54976;51.510;7.522;2022-12-26T07:26:23;10.80;99.90
58638;DHT22;54976;51.510;7.522;2022-12-26T07:29:24;10.90;99.90
58638;DHT22;54976;51.510;7.522;2022-12-26T07:32:26;10.90;99.90
58638;DHT22;54976;51.510;7.522;2022-12-26T07:35:27;10.90;99.90
58638;DHT22;54976;51.510;7.522;2022-12-26T07:38:27;11.00;99.90
58638;DHT22;54976;51.510;7.522;2022-12-26T07:41:28;11.00;99.90
58638;DHT22;54976;51.510;7.522;2022-12-26T07:44:47;11.10;99.90
58638;DHT22;54976;51.510;7.522;2022-12-26T07:47:52;11.10;99.90
58638;DHT22;54976;51.510;7.522;2022-12-26T07:50:53;11.00;99.90
58638;DHT22;54976;51.510;7.522;2022-12-26T07:53:53;11.00;99.90
58638;DHT22;54976;51.510;7.522;2022-12-26T07:56:55;11.10;99.90
58638;DHT22;54976;51.510;7.522;2022-12-26T07:59:55;11.10;99.90
58638;DHT22;54976;51.510;7.522;2022-12-26T08:02:56;11.10;99.90
58638;DHT22;54976;51.510;7.522;2022-12-26T08:05:58;11.10;99.90
58638;DHT22;54976;51.510;7.522;2022-12-26T08:08:58;11.10;99.90
58638;DHT22;54976;51.510;7.522;2022-12-26T08:11:59;11.10;99.90
58638;DHT22;54976;51.510;7.522;2022-12-26T08:15:00;11.10;99.90
58638;DHT22;54976;51.510;7.522;2022-12-26T08:18:00;11.10;99.90
58638;DHT22;54976;51.510;7.522;2022-12-26T08:21:01;11.10;99.90
58638;DHT22;54976;51.510;7.522;2022-12-26T08:24:01;11.20;99.90
58638;DHT22;54976;51.510;7.522;2022-12-26T08:27:03;11.20;99.90
58638;DHT22;54976;51.510;7.522;2022-12-26T08:30:04;11.20;99.80
58638;DHT22;54976;51.510;7.522;2022-12-26T08:33:04;11.20;99.90
58638;DHT22;54976;51.510;7.522;2022-12-26T08:36:08;11.20;99.70
58638;DHT22;54976;51.510;7.522;2022-12-26T08:39:09;11.30;99.30
58638;DHT22;54976;51.510;7.522;2022-12-26T08:42:10;11.40;99.10
58638;DHT22;54976;51.510;7.522;2022-12-26T08:45:10;11.40;98.50
58638;DHT22;54976;51.510;7.522;2022-12-26T08:48:11;11.40;98.50
58638;DHT22;54976;51.510;7.522;2022-12-26T08:51:29;11.40;98.60
58638;DHT22;54976;51.510;7.522;2022-12-26T08:54:30;11.40;98.90
58638;DHT22;54976;51.510;7.522;2022-12-26T08:57:31;11.40;97.90
58638;DHT22;54976;51.510;7.522;2022-12-26T09:00:31;11.40;97.70
58638;DHT22;54976;51.510;7.522;2022-12-26T09:03:32;11.50;97.80
58638;DHT22;54976;51.510;7.522;2022-12-26T09:06:34;11.50;97.80
58638;DHT22;54976;51.510;7.522;2022-12-26T09:09:35;11.40;97.70
58638;DHT22;54976;51.510;7.522;2022-12-26T09:12:36;11.40;97.60
58638;DHT22;54976;51.510;7.522;2022-12-26T09:15:37;11.50;97.40
58638;DHT22;54976;51.510;7.522;2022-12-26T09:18:37;11.60;97.30
58638;DHT22;54976;51.510;7.522;2022-12-26T09:21:38;11.40;96.60
58638;DHT22;54976;51.510;7.522;2022-12-26T09:24:39;11.50;96.50
58638;DHT22;54976;51.510;7.522;2022-12-26T09:27:40;11.40;96.20
58638;DHT22;54976;51.510;7.522;2022-12-26T09:30:40;11.40;96.40
58638;DHT22;54976;51.510;7.522;2022-12-26T09:33:41;11.40;95.30
58638;DHT22;54976;51.510;7.522;2022-12-26T09:36:42;11.40;95.40
58638;DHT22;54976;51.510;7.522;2022-12-26T09:39:42;11.40;95.40
58638;DHT22;54976;51.510;7.522;2022-12-26T09:46:11;11.40;94.90
58638;DHT22;54976;51.510;7.522;2022-12-26T09:49:16;11.50;94.30
58638;DHT22;54976;51.510;7.522;2022-12-26T09:52:21;11.60;93.40
58638;DHT22;54976;51.510;7.522;2022-12-26T10:01:47;11.50;93.10
58638;DHT22;54976;51.510;7.522;2022-12-26T10:04:49;11.40;93.40
58638;DHT22;54976;51.510;7.522;2022-12-26T10:08:19;11.40;93.90
58638;DHT22;54976;51.510;7.522;2022-12-26T10:15:12;11.40;93.40
58638;DHT22;54976;51.510;7.522;2022-12-26T10:18:52;11.40;93.60
58638;DHT22;54976;51.510;7.522;2022-12-26T10:25:19;11.40;93.40
58638;DHT22;54976;51.510;7.522;2022-12-26T10:28:29;11.50;92.60
58638;DHT22;54976;51.510;7.522;2022-12-26T10:34:43;11.90;92.00
58638;DHT22;54976;51.510;7.522;2022-12-26T10:37:43;11.80;91.30
58638;DHT22;54976;51.510;7.522;2022-12-26T10:40:45;11.90;91.60
58638;DHT22;54976;51.510;7.522;2022-12-26T10:43:50;11.90;91.20
58638;DHT22;54976;51.510;7.522;2022-12-26T10:49:54;11.90;91.00
58638;DHT22;54976;51.510;7.522;2022-12-26T10:53:00;11.90;91.20
58638;DHT22;54976;51.510;7.522;2022-12-26T10:56:03;11.80;91.40
58638;DHT22;54976;51.510;7.522;2022-12-26T10:59:03;11.80;91.40
58638;DHT22;54976;51.510;7.522;2022-12-26T11:05:21;11.90;91.10
58638;DHT22;54976;51.510;7.522;2022-12-26T11:08:25;12.10;90.60
58638;DHT22;54976;51.510;7.522;2022-12-26T11:11:33;12.20;90.00
58638;DHT22;54976;51.510;7.522;2022-12-26T11:14:47;12.20;89.90
58638;DHT22;54976;51.510;7.522;2022-12-26T11:17:50;12.30;89.30
58638;DHT22;54976;51.510;7.522;2022-12-26T11:20:51;12.30;89.40
58638;DHT22;54976;51.510;7.522;2022-12-26T11:24:17;12.40;88.30
58638;DHT22;54976;51.510;7.522;2022-12-26T11:27:22;12.50;88.60
58638;DHT22;54976;51.510;7.522;2022-12-26T11:33:34;12.30;90.40
58638;DHT22;54976;51.510;7.522;2022-12-26T11:36:36;12.20;90.30
58638;DHT22;54976;51.510;7.522;2022-12-26T11:39:40;12.20;89.90
58638;DHT22;54976;51.510;7.522;2022-12-26T11:42:41;12.10;90.60
58638;DHT22;54976;51.510;7.522;2022-12-26T11:45:43;12.10;90.40
58638;DHT22;54976;51.510;7.522;2022-12-26T11:48:49;12.10;90.10
58638;DHT22;54976;51.510;7.522;2022-12-26T11:51:51;12.10;90.00
58638;DHT22;54976;51.510;7.522;2022-12-26T11:54:52;12.10;89.50
58638;DHT22;54976;51.510;7.522;2022-12-26T12:04:00;11.90;91.50
58638;DHT22;54976;51.510;7.522;2022-12-26T12:07:12;11.90;92.80
58638;DHT22;54976;51.510;7.522;2022-12-26T12:17:18;11.60;92.00
58638;DHT22;54976;51.510;7.522;2022-12-26T12:23:42;11.90;90.30
58638;DHT22;54976;51.510;7.522;2022-12-26T12:30:37;12.00;90.70
58638;DHT22;54976;51.510;7.522;2022-12-26T12:33:58;12.10;89.20
58638;DHT22;54976;51.510;7.522;2022-12-26T12:51:04;11.70;90.70
58638;DHT22;54976;51.510;7.522;2022-12-26T12:54:40;11.80;90.90
58638;DHT22;54976;51.510;7.522;2022-12-26T13:01:14;11.80;90.60
58638;DHT22;54976;51.510;7.522;2022-12-26T13:07:28;11.80;90.80
58638;DHT22;54976;51.510;7.522;2022-12-26T13:10:33;11.80;90.80
58638;DHT22;54976;51.510;7.522;2022-12-26T13:13:51;11.90;91.00
58638;DHT22;54976;51.510;7.522;2022-12-26T13:16:59;11.90;91.30
58638;DHT22;54976;51.510;7.522;2022-12-26T13:20:05;11.60;92.50
58638;DHT22;54976;51.510;7.522;2022-12-26T13:23:27;11.20;94.20
58638;DHT22;54976;51.510;7.522;2022-12-26T13:27:02;10.90;95.40
58638;DHT22;54976;51.510;7.522;2022-12-26T13:30:15;10.50;97.10
58638;DHT22;54976;51.510;7.522;2022-12-26T13:33:16;10.40;98.10
58638;DHT22;54976;51.510;7.522;2022-12-26T13:36:38;10.30;98.40
58638;DHT22;54976;51.510;7.522;2022-12-26T13:39:39;10.20;98.50
58638;DHT22;54976;51.510;7.522;2022-12-26T13:42:46;10.20;98.30
58638;DHT22;54976;51.510;7.522;2022-12-26T13:46:52;10.20;98.10
58638;DHT22;54976;51.510;7.522;2022-12-26T13:49:53;10.10;98.70
58638;DHT22;54976;51.510;7.522;2022-12-26T13:52:54;10.00;99.10
58638;DHT22;54976;51.510;7.522;2022-12-26T14:42:25;9.40;97.40
58638;DHT22;54976;51.510;7.522;2022-12-26T14:45:47;9.30;97.80
58638;DHT22;54976;51.510;7.522;2022-12-26T14:48:54;9.30;97.80
58638;DHT22;54976;51.510;7.522;2022-12-26T14:56:02;9.20;97.30
58638;DHT22;54976;51.510;7.522;2022-12-26T14:59:29;9.10;97.00
58638;DHT22;54976;51.510;7.522;2022-12-26T15:02:31;9.00;98.20
58638;DHT22;54976;51.510;7.522;2022-12-26T15:05:40;8.90;98.60
58638;DHT22;54976;51.510;7.522;2022-12-26T15:32:59;8.40;95.20
58638;DHT22;54976;51.510;7.522;2022-12-26T15:46:35;8.20;93.80
58638;DHT22;54976;51.510;7.522;2022-12-26T15:56:27;8.10;92.90
58638;DHT22;54976;51.510;7.522;2022-12-26T16:00:06;8.10;92.80
58638;DHT22;54976;51.510;7.522;2022-12-26T16:10:30;7.90;92.30
58638;DHT22;54976;51.510;7.522;2022-12-26T16:13:32;7.90;92.80
58638;DHT22;54976;51.510;7.522;2022-12-26T16:16:34;7.80;93.40
58638;DHT22;54976;51.510;7.522;2022-12-26T16:19:36;7.90;91.90
58638;DHT22;54976;51.510;7.522;2022-12-26T16:22:38;7.90;92.40
58638;DHT22;54976;51.510;7.522;2022-12-26T16:25:50;7.80;92.00
58638;DHT22;54976;51.510;7.522;2022-12-26T16:28:52;7.80;92.00
58638;DHT22;54976;51.510;7.522;2022-12-26T16:32:02;7.90;91.20
58638;DHT22;54976;51.510;7.522;2022-12-26T16:35:04;7.80;91.60
58638;DHT22;54976;51.510;7.522;2022-12-26T16:38:07;7.50;91.90
58638;DHT22;54976;51.510;7.522;2022-12-26T16:41:52;7.40;92.20
58638;DHT22;54976;51.510;7.522;2022-12-26T16:44:56;7.40;91.90
58638;DHT22;54976;51.510;7.522;2022-12-26T16:47:57;7.30;91.70
58638;DHT22;54976;51.510;7.522;2022-12-26T16:51:06;7.20;92.40
58638;DHT22;54976;51.510;7.522;2022-12-26T16:54:28;7.10;92.90
58638;DHT22;54976;51.510;7.522;2022-12-26T16:57:29;7.10;92.20
58638;DHT22;54976;51.510;7.522;2022-12-26T17:00:30;7.10;92.20
58638;DHT22;54976;51.510;7.522;2022-12-26T17:09:59;7.10;92.60
58638;DHT22;54976;51.510;7.522;2022-12-26T17:13:04;7.10;91.90
58638;DHT22;54976;51.510;7.522;2022-12-26T17:16:07;7.10;91.50
58638;DHT22;54976;51.510;7.522;2022-12-26T17:19:20;7.10;91.40
58638;DHT22;54976;51.510;7.522;2022-12-26T17:25:32;7.00;91.50
58638;DHT22;54976;51.510;7.522;2022-12-26T17:28:36;6.90;91.60
58638;DHT22;54976;51.510;7.522;2022-12-26T17:31:39;6.90;92.00
58638;DHT22;54976;51.510;7.522;2022-12-26T17:34:41;6.80;92.20
58638;DHT22;54976;51.510;7.522;2022-12-26T17:37:48;6.80;92.40
58638;DHT22;54976;51.510;7.522;2022-12-26T17:40:53;6.90;92.40
58638;DHT22;54976;51.510;7.522;2022-12-26T17:43:54;6.80;92.60
58638;DHT22;54976;51.510;7.522;2022-12-26T17:46:57;6.80;92.20
58638;DHT22;54976;51.510;7.522;2022-12-26T17:49:57;6.70;92.30
58638;DHT22;54976;51.510;7.522;2022-12-26T17:53:06;6.70;92.50
58638;DHT22;54976;51.510;7.522;2022-12-26T17:56:19;6.70;91.70
58638;DHT22;54976;51.510;7.522;2022-12-26T17:59:21;6.70;91.70
58638;DHT22;54976;51.510;7.522;2022-12-26T18:02:22;6.70;91.20
58638;DHT22;54976;51.510;7.522;2022-12-26T18:05:23;6.70;91.50
58638;DHT22;54976;51.510;7.522;2022-12-26T18:08:37;6.60;91.40
58638;DHT22;54976;51.510;7.522;2022-12-26T18:11:38;6.60;91.70
58638;DHT22;54976;51.510;7.522;2022-12-26T18:14:39;6.60;91.80
58638;DHT22;54976;51.510;7.522;2022-12-26T18:17:40;6.60;91.60
58638;DHT22;54976;51.510;7.522;2022-12-26T18:20:41;6.70;91.60
58638;DHT22;54976;51.510;7.522;2022-12-26T18:23:41;6.60;91.60
58638;DHT22;54976;51.510;7.522;2022-12-26T18:26:42;6.60;91.10
58638;DHT22;54976;51.510;7.522;2022-12-26T18:29:43;6.50;91.30
58638;DHT22;54976;51.510;7.522;2022-12-26T18:32:45;6.60;90.90
58638;DHT22;54976;51.510;7.522;2022-12-26T18:35:52;6.60;90.00
58638;DHT22;54976;51.510;7.522;2022-12-26T18:38:55;6.60;87.50
58638;DHT22;54976;51.510;7.522;2022-12-26T18:41:56;6.50;88.70
58638;DHT22;54976;51.510;7.522;2022-12-26T18:44:56;6.40;88.00
58638;DHT22;54976;51.510;7.522;2022-12-26T18:47:57;6.40;88.40
58638;DHT22;54976;51.510;7.522;2022-12-26T18:50:59;6.30;88.90
58638;DHT22;54976;51.510;7.522;2022-12-26T18:54:02;6.20;89.10
58638;DHT22;54976;51.510;7.522;2022-12-26T18:57:04;6.20;90.10
58638;DHT22;54976;51.510;7.522;2022-12-26T19:00:06;6.00;90.30
58638;DHT22;54976;51.510;7.522;2022-12-26T19:03:08;6.00;91.10
58638;DHT22;54976;51.510;7.522;2022-12-26T19:06:13;5.90;91.30
58638;DHT22;54976;51.510;7.522;2022-12-26T19:09:15;5.90;91.20
58638;DHT22;54976;51.510;7.522;2022-12-26T19:12:16;5.80;91.70
58638;DHT22;54976;51.510;7.522;2022-12-26T19:15:17;5.80;91.50
58638;DHT22;54976;51.510;7.522;2022-12-26T19:18:18;5.80;91.80
58638;DHT22;54976;51.510;7.522;2022-12-26T19:21:18;5.80;92.10
58638;DHT22;54976;51.510;7.522;2022-12-26T19:24:19;5.70;92.10
58638;DHT22;54976;51.510;7.522;2022-12-26T19:27:20;5.60;92.00
58638;DHT22;54976;51.510;7.522;2022-12-26T19:30:21;5.60;92.20
58638;DHT22;54976;51.510;7.522;2022-12-26T19:33:22;5.50;92.30
58638;DHT22;54976;51.510;7.522;2022-12-26T19:36:22;5.50;92.60
58638;DHT22;54976;51.510;7.522;2022-12-26T19:39:23;5.50;92.60
58638;DHT22;54976;51.510;7.522;2022-12-26T19:42:24;5.50;92.20
58638;DHT22;54976;51.510;7.522;2022-12-26T19:45:25;5.50;91.90
58638;DHT22;54976;51.510;7.522;2022-12-26T19:48:25;5.40;92.10
58638;DHT22;54976;51.510;7.522;2022-12-26T19:51:28;5.40;92.10
58638;DHT22;54976;51.510;7.522;2022-12-26T19:54:29;5.40;91.70
58638;DHT22;54976;51.510;7.522;2022-12-26T19:57:29;5.40;91.70
58638;DHT22;54976;51.510;7.522;2022-12-26T20:00:30;5.30;91.80
58638;DHT22;54976;51.510;7.522;2022-12-26T20:03:31;5.20;92.10
58638;DHT22;54976;51.510;7.522;2022-12-26T20:06:34;5.20;92.50
58638;DHT22;54976;51.510;7.522;2022-12-26T20:09:35;5.10;92.40
58638;DHT22;54976;51.510;7.522;2022-12-26T20:12:35;5.10;92.70
58638;DHT22;54976;51.510;7.522;2022-12-26T20:15:36;5.10;92.50
58638;DHT22;54976;51.510;7.522;2022-12-26T20:18:37;5.10;92.90
58638;DHT22;54976;51.510;7.522;2022-12-26T20:21:38;5.10;92.80
58638;DHT22;54976;51.510;7.522;2022-12-26T20:24:38;5.00;93.20
58638;DHT22;54976;51.510;7.522;2022-12-26T20:27:39;5.00;93.20
58638;DHT22;54976;51.510;7.522;2022-12-26T20:30:40;5.00;93.20
58638;DHT22;54976;51.510;7.522;2022-12-26T20:33:42;4.90;93.20
58638;DHT22;54976;51.510;7.522;2022-12-26T20:36:43;4.90;93.20
58638;DHT22;54976;51.510;7.522;2022-12-26T20:39:43;4.90;93.10
58638;DHT22;54976;51.510;7.522;2022-12-26T20:42:44;5.00;92.80
58638;DHT22;54976;51.510;7.522;2022-12-26T20:45:44;4.90;93.30
58638;DHT22;54976;51.510;7.522;2022-12-26T20:48:45;4.90;93.10
58638;DHT22;54976;51.510;7.522;2022-12-26T20:51:46;4.90;92.90
58638;DHT22;54976;51.510;7.522;2022-12-26T20:54:47;4.80;93.00
58638;DHT22;54976;51.510;7.522;2022-12-26T20:57:47;4.90;92.70
58638;DHT22;54976;51.510;7.522;2022-12-26T21:01:01;4.80;92.60
58638;DHT22;54976;51.510;7.522;2022-12-26T21:04:02;4.80;92.90
58638;DHT22;54976;51.510;7.522;2022-12-26T21:07:03;4.70;92.70
58638;DHT22;54976;51.510;7.522;2022-12-26T21:10:04;4.70;92.40
58638;DHT22;54976;51.510;7.522;2022-12-26T21:13:05;4.70;92.50
58638;DHT22;54976;51.510;7.522;2022-12-26T21:16:15;4.70;92.30
58638;DHT22;54976;51.510;7.522;2022-12-26T21:19:16;4.80;91.90
58638;DHT22;54976;51.510;7.522;2022-12-26T21:22:16;4.80;91.70
58638;DHT22;54976;51.510;7.522;2022-12-26T21:25:17;4.70;91.80
58638;DHT22;54976;51.510;7.522;2022-12-26T21:28:18;4.80;91.70
58638;DHT22;54976;51.510;7.522;2022-12-26T21:31:18;4.70;91.60
58638;DHT22;54976;51.510;7.522;2022-12-26T21:34:20;4.80;91.40
58638;DHT22;54976;51.510;7.522;2022-12-26T21:37:21;4.70;91.60
58638;DHT22;54976;51.510;7.522;2022-12-26T21:40:42;4.70;91.20
58638;DHT22;54976;51.510;7.522;2022-12-26T21:43:43;4.80;91.10
58638;DHT22;54976;51.510;7.522;2022-12-26T21:46:43;4.80;91.00
58638;DHT22;54976;51.510;7.522;2022-12-26T21:49:46;4.80;90.90
58638;DHT22;54976;51.510;7.522;2022-12-26T21:52:47;4.80;90.80
58638;DHT22;54976;51.510;7.522;2022-12-26T21:55:48;4.80;90.80
58638;DHT22;54976;51.510;7.522;2022-12-26T21:58:48;4.80;90.80
58638;DHT22;54976;51.510;7.522;2022-12-26T22:02:10;4.90;90.50
58638;DHT22;54976;51.510;7.522;2022-12-26T22:05:37;5.00;90.20
58638;DHT22;54976;51.510;7.522;2022-12-26T22:08:38;5.10;90.00
58638;DHT22;54976;51.510;7.522;2022-12-26T22:11:38;5.10;89.40
58638;DHT22;54976;51.510;7.522;2022-12-26T22:14:58;5.10;89.80
58638;DHT22;54976;51.510;7.522;2022-12-26T22:17:58;5.10;89.30
58638;DHT22;54976;51.510;7.522;2022-12-26T22:21:19;5.10;89.80
58638;DHT22;54976;51.510;7.522;2022-12-26T22:24:20;5.10;89.20
58638;DHT22;54976;51.510;7.522;2022-12-26T22:27:21;5.10;89.10
58638;DHT22;54976;51.510;7.522;2022-12-26T22:30:21;5.20;88.10
58638;DHT22;54976;51.510;7.522;2022-12-26T22:33:23;5.20;88.00
58638;DHT22;54976;51.510;7.522;2022-12-26T22:36:25;5.10;88.20
58638;DHT22;54976;51.510;7.522;2022-12-26T22:39:26;5.10;89.20
58638;DHT22;54976;51.510;7.522;2022-12-26T22:42:30;5.20;87.50
58638;DHT22;54976;51.510;7.522;2022-12-26T22:45:33;5.20;87.90
58638;DHT22;54976;51.510;7.522;2022-12-26T22:48:34;5.30;86.60
58638;DHT22;54976;51.510;7.522;2022-12-26T22:51:34;5.40;86.60
58638;DHT22;54976;51.510;7.522;2022-12-26T22:54:35;5.40;86.00
58638;DHT22;54976;51.510;7.522;2022-12-26T22:57:36;5.40;86.90
58638;DHT22;54976;51.510;7.522;2022-12-26T23:00:36;5.40;86.60
58638;DHT22;54976;51.510;7.522;2022-12-26T23:03:37;5.50;85.40
58638;DHT22;54976;51.510;7.522;2022-12-26T23:06:38;5.50;86.00
58638;DHT22;54976;51.510;7.522;2022-12-26T23:09:40;5.50;85.70
58638;DHT22;54976;51.510;7.522;2022-12-26T23:12:41;5.50;85.20
58638;DHT22;54976;51.510;7.522;2022-12-26T23:16:00;5.50;85.80
58638;DHT22;54976;51.510;7.522;2022-12-26T23:22:31;5.60;84.80
58638;DHT22;54976;51.510;7.522;2022-12-26T23:25:32;5.50;85.30